Laval-Ouest, Canada
Current Conditions -  °F | °C
As of 10:00 AM on Saturday 20 Dec 2014 (Local Time) from CYUL Reporting Station
Few Clouds Few Clouds  
Wind Chill:   Ceiling: Unl
Heat Index: 16°   Visibility: 15mi
Dew Point: 10°   Wind: 7mph
Humidity: 79%   Direction: 20°NNE
Pressure: 30.37"   Gusts: NA
Location:  45.55°N, 73.87°W
Report Text: CYUL 201500Z 02006KT 15SM FEW014 FEW240 M09/M12 A3037 RMK SF1CI1 SF TR CI TR SLP286
Loading
Personal Weather Stations






























Interactive Weather Map New forecast layout! Learn more

10-Day Weather Forecast

Advertisements
Track Severe Weather on mobile